Estación Meteorológica Peña el Pijo (Robertgarden) [ 01/30/23 14:19:54 CET ]

Fecha Hora Presion(HPa) Temp (°C) Humedad % Rocio (°C) Viento ( m/s) Direccion Lluvia 1Hora(mm) Lluvia 24H(mm) LLuvia Total(mm)
2010-Apr-15 01:01:16 1002.100 8.1 87 6.1         106.70
2010-Apr-15 02:01:14 1001.900 8.1 87 6.1         106.70
2010-Apr-15 03:03:16 1001.700 8.3 85 5.9         106.70
2010-Apr-15 04:01:17 1001.100 8.2 85 5.8         106.70
2010-Apr-15 05:01:12 1001.400 8.1 85 5.7         106.70
2010-Apr-15 06:01:14 1001.400 7.7 86 5.5         106.70
2010-Apr-15 07:01:13 1001.200 7.4 87 5.4         106.70
2010-Apr-15 08:01:15 1001.500 7.3 88 5.5         106.70
2010-Apr-15 09:01:10 1001.800 8.6 85 6.2         106.70
2010-Apr-15 10:01:17 1002.000 9.6 82 6.6         106.70
2010-Apr-15 11:01:16 1002.700 10.6 78 6.9         106.70
2010-Apr-15 12:01:10 1003.000 13.3 71 8.2         106.70
2010-Apr-15 13:01:13 1002.700 16.5 59 8.5         106.70
2010-Apr-15 14:01:11 1002.200 14.9 61 7.4         106.70
2010-Apr-15 15:01:17 1002.200 15.9 61 8.4 1.7 NNW     106.70
2010-Apr-15 16:01:16 1002.000 13.4 73 8.6         106.70
2010-Apr-15 17:01:17 1002.300 11.0 85 8.6     4.66 4.66 111.37
2010-Apr-15 18:01:14 1002.300 11.4 88 9.5     0.51 5.18 111.88
2010-Apr-15 19:01:13 1002.400 13.0 79 9.4       5.18 111.88
2010-Apr-15 20:01:11 1002.700 11.3 84 8.7       5.18 111.88
2010-Apr-15 21:01:14 1003.100 10.4 89 8.6       5.18 111.88
2010-Apr-15 22:01:15 1003.600 10.1 91 8.7       5.18 111.88
2010-Apr-15 23:08:13 1004.100 - - - - N   5.18 111.88

Temperatura Máxima:16°    Temperatura Mínima:
Presión Máxima:1004.100 Hpa    Presión Mínima:1001.100 Hpa


Volver